Time;durP1;ratioP1;P1;durP2;ratioP2;P2;SDS_P1;SDS_P2;PMS_P1;PMS_P2;Temp;Humidity;BMP_temperature;BMP_pressure;BME280_temperature;BME280_humidity;BME280_pressure;Samples;Min_cycle;Max_cycle;Signal;HPM_P1;HPM_P2
2022/10/14 00:01:36;;;;;;;;;;;;;;;16.19;56.86;101342.22;5078574;28;1202;-55
2022/10/14 00:04:02;;;;;;;;;;;;;;;17.60;54.82;101340.41;5078197;28;1253;-55
2022/10/14 00:06:31;;;;;;;;;;;;;;;16.86;56.52;101339.31;5077951;28;1901;-56
2022/10/14 00:08:58;;;;;;;;;;;;;;;16.46;56.87;101335.09;5077074;28;1111;-55
2022/10/14 00:11:25;;;;;;;;;;;;;;;16.25;56.58;101337.59;5077742;28;1128;-57
2022/10/14 00:13:53;;;;;;;;;;;;;;;16.14;56.47;101339.41;5072383;28;2345;-56
2022/10/14 00:16:22;;;;;;;;;;;;;;;16.23;56.87;101339.78;5078498;28;1123;-57
2022/10/14 00:18:48;;;;;;;;;;;;;;;17.56;54.85;101331.03;5076656;28;956;-57
2022/10/14 00:21:14;;;;;;;;;;;;;;;16.77;56.53;101325.19;5077952;28;1190;-57
2022/10/14 00:23:39;;;;;;;;;;;;;;;16.44;56.91;101316.13;5077914;28;1201;-55
2022/10/14 00:26:05;;;;;;;;;;;;;;;16.24;56.81;101322.22;5077853;28;1909;-57
2022/10/14 00:28:33;;;;;;;;;;;;;;;16.08;56.63;101323.97;5077894;28;1185;-57
2022/10/14 00:30:59;;;;;;;;;;;;;;;16.70;56.53;101314.44;5077587;28;1177;-56
2022/10/14 00:33:25;;;;;;;;;;;;;;;17.38;55.38;101313.06;5060239;28;1299;-57
2022/10/14 00:35:58;;;;;;;;;;;;;;;16.64;56.79;101315.50;5077732;28;1225;-56
2022/10/14 00:38:29;;;;;;;;;;;;;;;16.36;56.94;101320.16;5076335;28;1178;-56
2022/10/14 00:40:55;;;;;;;;;;;;;;;16.20;56.69;101310.09;5077390;28;1202;-57
2022/10/14 00:43:20;;;;;;;;;;;;;;;16.12;56.24;101305.06;5071225;28;2303;-57
2022/10/14 00:45:48;;;;;;;;;;;;;;;16.94;56.42;101305.88;5076335;28;1905;-55
2022/10/14 00:48:14;;;;;;;;;;;;;;;17.39;55.48;101304.53;5056564;28;1178;-56
2022/10/14 00:50:41;;;;;;;;;;;;;;;16.66;56.82;101302.34;5039816;28;1123;-56
2022/10/14 00:53:06;;;;;;;;;;;;;;;16.41;56.76;101305.66;5040093;28;1104;-56
2022/10/14 00:55:31;;;;;;;;;;;;;;;16.30;56.33;101302.00;5077402;28;1182;-56
2022/10/14 00:57:58;;;;;;;;;;;;;;;16.20;56.27;101299.13;5046730;28;1167;-55
2022/10/14 01:00:24;;;;;;;;;;;;;;;16.04;56.28;101296.22;5039068;28;1241;-56
2022/10/14 01:02:49;;;;;;;;;;;;;;;17.38;55.55;101299.31;5039397;28;1496;-56
2022/10/14 01:05:15;;;;;;;;;;;;;;;16.96;56.26;101289.13;5058398;28;1170;-56
2022/10/14 01:07:50;;;;;;;;;;;;;;;16.53;56.80;101302.75;5031619;28;1917;-56
2022/10/14 01:10:22;;;;;;;;;;;;;;;16.35;56.79;101309.44;5076873;28;1095;-57
2022/10/14 01:12:50;;;;;;;;;;;;;;;16.20;56.29;101299.13;5077375;28;1118;-57
2022/10/14 01:15:25;;;;;;;;;;;;;;;16.08;56.28;101291.06;5072026;28;1088;-58
2022/10/14 01:17:50;;;;;;;;;;;;;;;17.19;55.90;101287.91;5076590;28;1143;-58
2022/10/14 01:20:16;;;;;;;;;;;;;;;17.05;55.93;101293.03;5076837;28;1134;-58
2022/10/14 01:23:00;;;;;;;;;;;;;;;16.55;56.62;101289.59;5072548;28;1158;-57
2022/10/14 01:25:25;;;;;;;;;;;;;;;16.28;56.88;101289.63;5075721;28;1977;-56
2022/10/14 01:27:54;;;;;;;;;;;;;;;16.18;56.42;101290.34;5063763;28;1114;-57
2022/10/14 01:30:23;;;;;;;;;;;;;;;16.06;56.37;101291.31;5055042;28;1197;-57
2022/10/14 01:32:48;;;;;;;;;;;;;;;17.24;55.69;101290.69;5052828;28;1207;-57
2022/10/14 01:35:32;;;;;;;;;;;;;;;17.18;55.75;101286.25;5050608;28;1229;-57
2022/10/14 01:38:09;;;;;;;;;;;;;;;16.54;56.72;101282.47;5056695;28;1136;-57
2022/10/14 01:40:37;;;;;;;;;;;;;;;16.36;56.77;101286.41;5048258;28;1119;-57
2022/10/14 01:43:02;;;;;;;;;;;;;;;17.27;55.65;101284.66;5056189;28;1799;-57
2022/10/14 01:45:27;;;;;;;;;;;;;;;17.23;55.79;101287.09;5038484;28;1906;-57
2022/10/14 01:47:53;;;;;;;;;;;;;;;16.70;56.31;101281.47;5038324;28;1210;-57
2022/10/14 01:50:19;;;;;;;;;;;;;;;16.46;56.48;101275.50;5038494;28;1163;-57
2022/10/14 01:52:49;;;;;;;;;;;;;;;16.31;56.31;101283.59;5038623;28;1083;-57
2022/10/14 01:55:17;;;;;;;;;;;;;;;16.19;56.18;101276.34;5056741;28;1175;-57
2022/10/14 01:57:42;;;;;;;;;;;;;;;16.10;56.11;101283.38;5057958;28;1092;-57
2022/10/14 02:00:08;;;;;;;;;;;;;;;16.02;55.97;101284.69;5058285;28;1213;-57
2022/10/14 02:02:39;;;;;;;;;;;;;;;17.29;55.55;101279.72;5075882;28;1094;-57
2022/10/14 02:05:05;;;;;;;;;;;;;;;16.86;56.51;101270.63;5062545;28;1261;-57
2022/10/14 02:07:37;;;;;;;;;;;;;;;16.47;56.86;101276.34;5057434;28;1913;-57
2022/10/14 02:10:15;;;;;;;;;;;;;;;16.32;56.54;101279.78;5075978;28;1083;-57
2022/10/14 02:12:41;;;;;;;;;;;;;;;16.13;56.53;101284.78;5041657;28;1128;-56
2022/10/14 02:15:18;;;;;;;;;;;;;;;16.04;56.14;101287.97;5052916;28;2534;-56
2022/10/14 02:17:52;;;;;;;;;;;;;;;17.35;55.33;101286.91;5057705;28;1470;-57
2022/10/14 02:20:17;;;;;;;;;;;;;;;17.17;55.53;101276.38;5075839;28;1115;-59
2022/10/14 02:22:47;;;;;;;;;;;;;;;16.66;56.54;101280.38;5069130;28;1208;-58
2022/10/14 02:25:15;;;;;;;;;;;;;;;16.39;56.65;101275.72;5038217;28;1147;-58
2022/10/14 02:27:41;;;;;;;;;;;;;;;16.21;56.53;101273.34;5057281;28;1979;-58
2022/10/14 02:30:08;;;;;;;;;;;;;;;16.12;56.37;101278.47;5075694;28;1146;-58
2022/10/14 02:32:34;;;;;;;;;;;;;;;17.37;55.56;101273.72;5057204;28;1127;-58
2022/10/14 02:34:59;;;;;;;;;;;;;;;16.94;56.19;101264.66;5076012;28;1122;-57
2022/10/14 02:37:26;;;;;;;;;;;;;;;16.51;56.64;101277.47;5045182;28;1335;-59
2022/10/14 02:39:54;;;;;;;;;;;;;;;16.30;56.63;101260.81;5053158;28;1158;-57
2022/10/14 02:42:19;;;;;;;;;;;;;;;16.20;56.35;101266.19;5057399;28;1194;-58
2022/10/14 02:44:54;;;;;;;;;;;;;;;17.47;55.35;101266.63;5055482;28;1808;-57
2022/10/14 02:47:21;;;;;;;;;;;;;;;16.84;56.41;101264.56;5055326;28;1902;-59
2022/10/14 02:49:47;;;;;;;;;;;;;;;16.49;56.82;101264.00;5051738;28;1442;-58
2022/10/14 02:52:13;;;;;;;;;;;;;;;16.33;56.53;101265.78;5063262;28;1138;-57
2022/10/14 02:54:39;;;;;;;;;;;;;;;16.16;56.50;101259.56;5057080;28;1447;-61
2022/10/14 02:57:04;;;;;;;;;;;;;;;16.07;56.48;101240.84;5057271;28;1201;-58
2022/10/14 02:59:30;;;;;;;;;;;;;;;16.34;56.66;101251.00;5075045;28;1138;-58
2022/10/14 03:01:56;;;;;;;;;;;;;;;17.74;54.46;101239.78;5057592;28;1147;-59
2022/10/14 03:04:22;;;;;;;;;;;;;;;16.85;56.41;101245.06;5057452;28;1214;-60
2022/10/14 03:06:50;;;;;;;;;;;;;;;16.50;56.75;101245.63;5057017;28;1913;-59
2022/10/14 03:09:17;;;;;;;;;;;;;;;16.32;56.53;101255.91;5049057;28;1498;-57
2022/10/14 03:11:44;;;;;;;;;;;;;;;16.20;56.39;101244.25;5037355;28;1108;-59
2022/10/14 03:14:15;;;;;;;;;;;;;;;16.12;56.40;101241.97;5044460;28;2536;-61
2022/10/14 03:16:41;;;;;;;;;;;;;;;16.23;56.58;101247.31;5057426;28;1161;-62
2022/10/14 03:19:07;;;;;;;;;;;;;;;17.52;54.90;101239.97;5075004;28;1242;-58
2022/10/14 03:21:44;;;;;;;;;;;;;;;16.68;56.71;101244.41;5044932;28;1269;-58
2022/10/14 03:24:16;;;;;;;;;;;;;;;16.34;56.77;101240.00;5037456;28;1314;-57
2022/10/14 03:26:42;;;;;;;;;;;;;;;16.22;56.38;101237.41;5037426;28;1906;-61
2022/10/14 03:29:08;;;;;;;;;;;;;;;16.07;56.59;101243.59;5040958;28;1190;-61
2022/10/14 03:31:51;;;;;;;;;;;;;;;16.01;56.20;101243.81;5070476;28;1260;-58
2022/10/14 03:34:40;;;;;;;;;;;;;;;17.58;55.07;101235.31;5056744;28;1316;-59
2022/10/14 03:37:12;;;;;;;;;;;;;;;16.88;56.39;101228.09;5057092;28;1236;-59
2022/10/14 03:39:45;;;;;;;;;;;;;;;16.49;56.81;101231.06;5057069;28;1368;-60
2022/10/14 03:42:11;;;;;;;;;;;;;;;16.26;56.59;101229.50;5057342;28;1166;-58
2022/10/14 03:44:42;;;;;;;;;;;;;;;16.17;56.66;101228.31;5044614;28;2144;-59
2022/10/14 03:47:18;;;;;;;;;;;;;;;17.23;55.83;101229.38;5049923;28;1993;-53
2022/10/14 03:49:44;;;;;;;;;;;;;;;17.01;56.04;101225.97;5060669;28;1441;-53
2022/10/14 03:52:33;;;;;;;;;;;;;;;16.56;56.91;101222.63;5067474;28;1138;-53
2022/10/14 03:55:09;;;;;;;;;;;;;;;16.33;56.83;101221.06;5062753;28;1118;-56
2022/10/14 03:57:35;;;;;;;;;;;;;;;16.22;56.48;101209.97;5077280;28;1174;-57
2022/10/14 04:00:00;;;;;;;;;;;;;;;16.74;57.06;101216.69;5058459;28;1234;-55
2022/10/14 04:02:39;;;;;;;;;;;;;;;17.42;55.53;101216.03;5067526;28;1119;-54
2022/10/14 04:05:05;;;;;;;;;;;;;;;16.68;57.07;101212.28;5060243;28;1424;-54
2022/10/14 04:07:31;;;;;;;;;;;;;;;16.46;56.76;101209.63;5059793;28;1910;-52
2022/10/14 04:09:57;;;;;;;;;;;;;;;16.31;56.62;101210.31;5060203;28;1251;-53
2022/10/14 04:12:23;;;;;;;;;;;;;;;16.20;56.37;101212.16;5059980;28;1182;-53
2022/10/14 04:14:57;;;;;;;;;;;;;;;17.27;56.06;101207.72;5060242;28;2603;-50
2022/10/14 04:17:24;;;;;;;;;;;;;;;16.98;56.44;101213.59;5059960;28;1364;-50
2022/10/14 04:19:50;;;;;;;;;;;;;;;16.55;56.97;101216.31;5059806;28;1171;-52
2022/10/14 04:22:16;;;;;;;;;;;;;;;16.32;56.75;101211.97;5059811;28;1129;-51
2022/10/14 04:24:45;;;;;;;;;;;;;;;16.21;56.60;101213.00;5060119;28;1178;-49
2022/10/14 04:27:11;;;;;;;;;;;;;;;16.12;56.34;101214.53;5077759;28;1909;-53
2022/10/14 04:29:43;;;;;;;;;;;;;;;16.01;56.35;101206.22;5059909;28;1234;-52
2022/10/14 04:32:15;;;;;;;;;;;;;;;16.29;56.84;101209.78;5075953;28;1306;-55
2022/10/14 04:34:41;;;;;;;;;;;;;;;17.65;54.84;101210.34;5059877;28;1139;-54
2022/10/14 04:37:09;;;;;;;;;;;;;;;16.76;56.69;101208.22;5059556;28;1194;-54
2022/10/14 04:39:59;;;;;;;;;;;;;;;16.38;56.90;101213.69;5044798;28;1201;-53
2022/10/14 04:42:25;;;;;;;;;;;;;;;16.20;56.75;101200.34;5059814;28;1290;-54
2022/10/14 04:44:57;;;;;;;;;;;;;;;16.07;56.43;101207.94;5045280;28;1794;-50
2022/10/14 04:47:32;;;;;;;;;;;;;;;16.05;56.44;101204.63;5048467;28;1984;-54
2022/10/14 04:50:00;;;;;;;;;;;;;;;17.12;55.89;101215.88;5056988;28;1164;-53
2022/10/14 04:52:28;;;;;;;;;;;;;;;17.24;55.67;101211.00;5059523;28;1158;-51
2022/10/14 04:55:02;;;;;;;;;;;;;;;16.58;56.75;101209.47;5058562;28;1346;-51
2022/10/14 04:57:35;;;;;;;;;;;;;;;16.36;56.54;101215.88;5059550;28;1119;-54
2022/10/14 05:00:01;;;;;;;;;;;;;;;16.23;56.28;101216.31;5059204;28;1323;-54
2022/10/14 05:02:43;;;;;;;;;;;;;;;16.12;56.53;101214.53;5075856;28;1257;-52
2022/10/14 05:05:09;;;;;;;;;;;;;;;17.45;55.04;101218.22;5074777;28;1245;-53
2022/10/14 05:07:37;;;;;;;;;;;;;;;17.05;55.93;101219.66;5039012;28;1985;-53
2022/10/14 05:10:19;;;;;;;;;;;;;;;16.56;56.78;101219.88;5072309;28;1214;-54
2022/10/14 05:12:47;;;;;;;;;;;;;;;16.37;56.85;101222.19;5059932;28;1271;-56
2022/10/14 05:15:12;;;;;;;;;;;;;;;16.23;56.78;101230.03;5054241;28;2661;-51
2022/10/14 05:18:01;;;;;;;;;;;;;;;16.12;56.56;101231.00;5068851;28;1448;-50
2022/10/14 05:20:43;;;;;;;;;;;;;;;16.00;56.26;101228.41;5076846;28;925;-51
2022/10/14 05:23:08;;;;;;;;;;;;;;;15.90;56.20;101232.69;5059003;28;1230;-55
2022/10/14 05:25:34;;;;;;;;;;;;;;;17.17;55.82;101232.41;5077095;28;1984;-55
2022/10/14 05:27:59;;;;;;;;;;;;;;;16.96;55.98;101231.44;5058422;28;1271;-54
2022/10/14 05:30:25;;;;;;;;;;;;;;;16.48;56.80;101228.59;5039154;28;1267;-55
2022/10/14 05:32:51;;;;;;;;;;;;;;;16.28;56.80;101221.00;5051751;28;1119;-52
2022/10/14 05:35:18;;;;;;;;;;;;;;;16.48;57.19;101226.69;5059052;28;1276;-53
2022/10/14 05:37:44;;;;;;;;;;;;;;;17.99;53.94;101229.16;5077057;28;1122;-50
2022/10/14 05:40:10;;;;;;;;;;;;;;;16.77;54.57;101227.19;5058949;28;1162;-55
2022/10/14 05:42:36;;;;;;;;;;;;;;;16.43;52.82;101226.63;5058775;28;1147;-50
2022/10/14 05:45:02;;;;;;;;;;;;;;;17.58;54.44;101224.34;5055049;28;1707;-48
2022/10/14 05:47:29;;;;;;;;;;;;;;;16.78;54.02;101222.50;5058698;28;1909;-46
2022/10/14 05:50:02;;;;;;;;;;;;;;;18.07;54.11;101225.88;5059059;28;1233;-51
2022/10/14 05:52:30;;;;;;;;;;;;;;;17.85;53.62;101229.66;5058797;28;1168;-51
2022/10/14 05:54:58;;;;;;;;;;;;;;;17.16;52.67;101234.31;5058806;28;1319;-49
2022/10/14 05:57:26;;;;;;;;;;;;;;;16.85;51.30;101233.28;5076194;28;936;-50
2022/10/14 05:59:52;;;;;;;;;;;;;;;16.76;50.03;101233.75;5076114;28;1205;-56
2022/10/14 06:02:17;;;;;;;;;;;;;;;17.40;52.74;101234.72;5058468;28;1382;-48
2022/10/14 06:04:43;;;;;;;;;;;;;;;16.95;52.61;101238.84;5045972;28;1340;-46
2022/10/14 06:07:09;;;;;;;;;;;;;;;18.49;53.36;101251.50;5037195;28;1905;-56
2022/10/14 06:09:35;;;;;;;;;;;;;;;15.71;59.81;101240.44;5066772;28;913;-50
2022/10/14 06:12:00;;;;;;;;;;;;;;;15.92;56.32;101229.69;5076324;28;1107;-53
2022/10/14 06:14:26;;;;;;;;;;;;;;;16.50;51.98;101237.41;5052918;28;2771;-52
2022/10/14 06:16:52;;;;;;;;;;;;;;;17.58;54.12;101235.31;5043629;28;1204;-48
2022/10/14 06:19:18;;;;;;;;;;;;;;;16.96;52.92;101239.66;5038126;28;1171;-51
2022/10/14 06:21:43;;;;;;;;;;;;;;;16.88;52.30;101241.81;5068601;28;981;-52
2022/10/14 06:24:09;;;;;;;;;;;;;;;17.24;53.42;101230.25;5075638;28;1242;-55
2022/10/14 06:26:34;;;;;;;;;;;;;;;16.92;52.01;101231.97;5075897;28;1906;-50
2022/10/14 06:29:00;;;;;;;;;;;;;;;17.67;53.07;101233.72;5075752;28;1158;-49
2022/10/14 06:31:25;;;;;;;;;;;;;;;17.18;52.32;101234.03;5076163;28;1107;-51
2022/10/14 06:33:51;;;;;;;;;;;;;;;16.94;50.92;101231.69;5075643;28;972;-47
2022/10/14 06:36:16;;;;;;;;;;;;;;;16.76;50.24;101231.00;5075963;28;1138;-57
2022/10/14 06:38:42;;;;;;;;;;;;;;;17.32;51.16;101228.88;5075991;28;1142;-49
2022/10/14 06:41:07;;;;;;;;;;;;;;;17.23;51.99;101242.31;5071371;28;1190;-55
2022/10/14 06:43:34;;;;;;;;;;;;;;;16.94;50.88;101242.69;5069550;28;1682;-53
2022/10/14 06:45:59;;;;;;;;;;;;;;;16.81;50.07;101241.19;5074791;28;1980;-50
2022/10/14 06:48:25;;;;;;;;;;;;;;;17.84;51.71;101239.00;5076003;28;1210;-52
2022/10/14 06:50:50;;;;;;;;;;;;;;;17.20;51.37;101235.44;5075722;28;1221;-53
2022/10/14 06:53:16;;;;;;;;;;;;;;;16.97;50.18;101233.94;5075599;28;1083;-56
2022/10/14 06:55:41;;;;;;;;;;;;;;;17.09;50.89;101244.72;5076620;28;1138;-56
2022/10/14 06:58:07;;;;;;;;;;;;;;;17.27;51.80;101235.19;5075365;28;1086;-57
2022/10/14 07:00:32;;;;;;;;;;;;;;;16.98;50.54;101235.56;5075475;28;1133;-57
2022/10/14 07:02:58;;;;;;;;;;;;;;;16.85;49.68;101228.59;5075644;28;1154;-55
2022/10/14 07:05:23;;;;;;;;;;;;;;;17.27;51.15;101218.69;5075931;28;1216;-52
2022/10/14 07:07:49;;;;;;;;;;;;;;;17.21;51.35;101225.28;5075573;28;1909;-49
2022/10/14 07:10:14;;;;;;;;;;;;;;;16.92;50.36;101220.16;5075181;28;940;-52
2022/10/14 07:12:40;;;;;;;;;;;;;;;17.83;51.25;101214.50;5075806;28;1099;-55
2022/10/14 07:15:06;;;;;;;;;;;;;;;17.18;51.50;101212.06;5056490;28;2631;-49
2022/10/14 07:17:31;;;;;;;;;;;;;;;16.98;50.36;101204.53;5076083;28;1078;-50
2022/10/14 07:19:57;;;;;;;;;;;;;;;16.86;49.38;101210.22;5067737;28;1079;-55
2022/10/14 07:22:22;;;;;;;;;;;;;;;17.89;51.05;101217.00;5079140;28;1058;-53
2022/10/14 07:24:48;;;;;;;;;;;;;;;17.28;50.83;101212.13;5079078;28;1118;-52
2022/10/14 07:27:15;;;;;;;;;;;;;;;16.97;50.11;101200.13;5079563;28;1978;-54
2022/10/14 07:29:40;;;;;;;;;;;;;;;16.95;49.19;101202.31;5079444;28;1154;-49
2022/10/14 07:32:06;;;;;;;;;;;;;;;17.34;50.24;101200.03;5079234;28;1157;-49
2022/10/14 07:34:33;;;;;;;;;;;;;;;17.30;50.90;101198.94;5079050;28;1268;-49
2022/10/14 07:36:58;;;;;;;;;;;;;;;17.02;50.01;101203.72;5079606;28;1146;-51
2022/10/14 07:39:24;;;;;;;;;;;;;;;16.94;49.34;101198.72;5061432;28;1147;-55
2022/10/14 07:41:50;;;;;;;;;;;;;;;17.31;50.86;101197.84;5079250;28;1115;-53
2022/10/14 07:44:16;;;;;;;;;;;;;;;17.05;50.20;101196.88;5067222;28;1600;-53
2022/10/14 07:46:42;;;;;;;;;;;;;;;16.91;49.35;101183.63;5078918;28;1906;-52
2022/10/14 07:49:09;;;;;;;;;;;;;;;17.98;50.47;101195.31;5079074;28;1217;-49
2022/10/14 07:51:34;;;;;;;;;;;;;;;17.36;51.36;101200.63;5078670;28;1111;-50
2022/10/14 07:54:00;;;;;;;;;;;;;;;17.17;50.22;101191.19;5060668;28;1170;-51
2022/10/14 07:56:26;;;;;;;;;;;;;;;17.03;49.44;101193.59;5078168;28;1186;-48
2022/10/14 07:58:52;;;;;;;;;;;;;;;17.57;51.10;101193.28;5078353;28;1377;-52
2022/10/14 08:01:17;;;;;;;;;;;;;;;17.14;50.45;101200.78;5078500;28;1185;-50
2022/10/14 08:03:43;;;;;;;;;;;;;;;17.06;49.39;101184.81;5078570;28;1134;-54
2022/10/14 08:06:08;;;;;;;;;;;;;;;16.97;48.89;101181.75;5087579;28;1898;-51
2022/10/14 08:08:34;;;;;;;;;;;;;;;17.74;50.54;101182.03;5079465;28;1146;-53
2022/10/14 08:11:10;;;;;;;;;;;;;;;17.23;50.10;101176.34;5066751;28;1103;-50
2022/10/14 08:13:36;;;;;;;;;;;;;;;17.07;49.44;101184.53;5076769;28;2488;-49
2022/10/14 08:16:01;;;;;;;;;;;;;;;17.30;49.93;101185.19;5058214;28;1139;-50
2022/10/14 08:18:27;;;;;;;;;;;;;;;17.34;50.51;101183.56;5058379;28;1139;-51
2022/10/14 08:20:52;;;;;;;;;;;;;;;17.09;49.67;101181.50;5058227;28;1103;-50
2022/10/14 08:23:17;;;;;;;;;;;;;;;17.01;48.98;101187.50;5069679;28;1213;-45
2022/10/14 08:25:43;;;;;;;;;;;;;;;16.93;48.36;101167.69;5060635;28;1902;-51
2022/10/14 08:28:08;;;;;;;;;;;;;;;17.01;49.17;101176.53;5040147;28;1131;-47
2022/10/14 08:30:34;;;;;;;;;;;;;;;17.72;50.64;101170.47;5056744;28;1221;-50
2022/10/14 08:32:59;;;;;;;;;;;;;;;17.24;49.98;101175.28;5065266;28;1142;-47
2022/10/14 08:35:25;;;;;;;;;;;;;;;17.02;49.49;101179.00;5077838;28;1115;-51
2022/10/14 08:37:54;;;;;;;;;;;;;;;17.25;49.60;101174.16;5077929;28;1162;-50
2022/10/14 08:40:20;;;;;;;;;;;;;;;17.51;50.68;101175.09;5077600;28;1123;-52
2022/10/14 08:42:59;;;;;;;;;;;;;;;17.18;49.88;101177.19;5077720;28;1142;-48
2022/10/14 08:45:37;;;;;;;;;;;;;;;17.03;49.13;101180.66;5070032;28;1131;-49
2022/10/14 08:48:04;;;;;;;;;;;;;;;17.63;50.25;101183.09;5072875;28;1905;-51
2022/10/14 08:50:31;;;;;;;;;;;;;;;17.36;50.17;101184.13;5077823;28;1209;-48
2022/10/14 08:52:59;;;;;;;;;;;;;;;17.07;49.53;101175.47;5077936;28;1071;-52
2022/10/14 08:55:37;;;;;;;;;;;;;;;16.95;48.92;101181.16;5062303;28;1142;-55
2022/10/14 08:58:11;;;;;;;;;;;;;;;16.88;48.19;101172.31;5066019;28;1170;-55
2022/10/14 09:00:36;;;;;;;;;;;;;;;16.83;47.99;101186.00;5039942;28;1084;-55
2022/10/14 09:03:04;;;;;;;;;;;;;;;17.41;49.68;101188.81;5039833;28;1131;-49
2022/10/14 09:05:29;;;;;;;;;;;;;;;17.04;49.43;101187.81;5044925;28;1158;-47
2022/10/14 09:07:55;;;;;;;;;;;;;;;16.95;48.71;101192.16;5077372;28;2345;-48
2022/10/14 09:10:31;;;;;;;;;;;;;;;17.83;49.80;101187.00;5066488;28;1079;-51
2022/10/14 09:12:58;;;;;;;;;;;;;;;17.19;50.04;101189.78;5068131;28;2532;-50
2022/10/14 09:15:27;;;;;;;;;;;;;;;17.10;49.24;101194.97;5056052;28;1103;-52
2022/10/14 09:18:02;;;;;;;;;;;;;;;16.95;48.85;101183.91;5076003;28;1186;-47
2022/10/14 09:20:28;;;;;;;;;;;;;;;17.53;49.83;101191.31;5059045;28;1162;-50
2022/10/14 09:23:14;;;;;;;;;;;;;;;17.49;50.37;101195.69;5076633;28;882;-48
2022/10/14 09:25:40;;;;;;;;;;;;;;;17.19;49.63;101194.47;5052802;28;1807;-48
2022/10/14 09:28:06;;;;;;;;;;;;;;;16.95;49.33;101197.66;5070013;28;1914;-48
2022/10/14 09:30:34;;;;;;;;;;;;;;;18.03;50.11;101189.81;5058310;28;1162;-52
2022/10/14 09:33:00;;;;;;;;;;;;;;;17.32;50.41;101191.25;5075578;28;1138;-52
2022/10/14 09:35:27;;;;;;;;;;;;;;;17.21;49.38;101204.13;5070210;28;1275;-47
2022/10/14 09:37:53;;;;;;;;;;;;;;;17.03;48.95;101194.41;5061902;28;1063;-47
2022/10/14 09:40:30;;;;;;;;;;;;;;;17.97;50.06;101199.16;5076337;28;1134;-54
2022/10/14 09:42:56;;;;;;;;;;;;;;;17.37;50.00;101202.25;5076387;28;1521;-55
2022/10/14 09:45:22;;;;;;;;;;;;;;;18.47;50.80;101197.53;5069799;28;1111;-51
2022/10/14 09:47:55;;;;;;;;;;;;;;;15.49;59.29;101206.72;5069941;28;1914;-55
2022/10/14 09:50:24;;;;;;;;;;;;;;;16.59;53.52;101195.47;5062780;28;1068;-52
2022/10/14 09:52:54;;;;;;;;;;;;;;;16.84;50.81;101204.97;5065837;28;1114;-54
2022/10/14 09:55:20;;;;;;;;;;;;;;;16.85;49.39;101201.13;5076843;28;1130;-52
2022/10/14 09:57:45;;;;;;;;;;;;;;;17.04;49.36;101204.31;5076262;28;1099;-52
2022/10/14 10:00:24;;;;;;;;;;;;;;;17.95;51.35;101204.13;5076333;28;1210;-50
2022/10/14 10:02:51;;;;;;;;;;;;;;;17.28;51.00;101198.38;5076547;28;1118;-51
2022/10/14 10:05:24;;;;;;;;;;;;;;;17.16;49.97;101192.28;5058576;28;1214;-52
2022/10/14 10:08:03;;;;;;;;;;;;;;;18.06;50.95;101200.28;5058401;28;1967;-52
2022/10/14 10:10:33;;;;;;;;;;;;;;;17.40;50.79;101198.97;5069916;28;1114;-49
2022/10/14 10:12:59;;;;;;;;;;;;;;;17.31;49.51;101191.53;5074656;28;1868;-53
2022/10/14 10:15:24;;;;;;;;;;;;;;;17.19;48.68;101209.03;5072818;28;1076;-51
2022/10/14 10:17:50;;;;;;;;;;;;;;;17.10;48.24;101203.22;5076609;28;1189;-52
2022/10/14 10:20:18;;;;;;;;;;;;;;;17.28;48.74;101190.94;5076336;28;1107;-48
2022/10/14 10:22:43;;;;;;;;;;;;;;;17.52;50.15;101186.94;5075991;28;944;-57
2022/10/14 10:25:09;;;;;;;;;;;;;;;17.26;49.38;101189.56;5076368;28;1190;-55
2022/10/14 10:27:38;;;;;;;;;;;;;;;17.42;50.10;101191.28;5075671;28;1902;-50
2022/10/14 10:30:16;;;;;;;;;;;;;;;17.55;50.44;101194.63;5076068;28;1147;-53
2022/10/14 10:32:53;;;;;;;;;;;;;;;17.31;49.23;101206.09;5075499;28;1182;-52
2022/10/14 10:35:27;;;;;;;;;;;;;;;17.15;48.64;101196.91;5071267;28;891;-49
2022/10/14 10:38:05;;;;;;;;;;;;;;;17.10;48.00;101192.22;5058475;28;1199;-53
2022/10/14 10:41:01;;;;;;;;;;;;;;;16.96;47.88;101184.72;5058473;28;1174;-53
2022/10/14 10:43:48;;;;;;;;;;;;;;;16.90;47.75;101192.13;5018681;28;1424;-51
2022/10/14 10:46:16;;;;;;;;;;;;;;;17.60;49.66;101183.66;5051886;28;1968;-51
2022/10/14 10:48:53;;;;;;;;;;;;;;;17.14;49.64;101186.19;5075716;28;1134;-51
2022/10/14 10:51:25;;;;;;;;;;;;;;;17.08;48.47;101183.44;5075886;28;1177;-54
2022/10/14 10:54:03;;;;;;;;;;;;;;;17.02;48.04;101180.94;5077429;28;1372;-51
2022/10/14 10:56:40;;;;;;;;;;;;;;;16.96;47.60;101192.97;5079932;28;1166;-51
2022/10/14 10:59:15;;;;;;;;;;;;;;;16.88;47.16;101188.78;5074716;28;1020;-52
2022/10/14 11:01:58;;;;;;;;;;;;;;;16.84;47.17;101193.16;5079575;28;1158;-52
2022/10/14 11:04:43;;;;;;;;;;;;;;;17.56;49.14;101179.78;5079878;28;1178;-52
2022/10/14 11:13:12;;;;;;;;;;;;;;;17.78;48.88;101177.66;5077450;28;2405;-53
2022/10/14 11:15:40;;;;;;;;;;;;;;;17.17;49.35;101181.00;5077874;28;1092;-52
2022/10/14 11:18:11;;;;;;;;;;;;;;;17.02;48.68;101173.50;5079534;28;1185;-52
2022/10/14 11:20:58;;;;;;;;;;;;;;;16.96;48.05;101169.09;5064481;28;1087;-54
2022/10/14 11:23:44;;;;;;;;;;;;;;;18.17;49.26;101176.31;5077620;28;836;-53
2022/10/14 11:26:17;;;;;;;;;;;;;;;17.30;50.19;101174.19;5066629;28;1910;-49
2022/10/14 11:28:50;;;;;;;;;;;;;;;17.14;49.18;101175.22;5079441;28;1138;-48
2022/10/14 11:31:26;;;;;;;;;;;;;;;17.45;49.26;101166.00;5066568;28;1250;-51
2022/10/14 11:34:10;;;;;;;;;;;;;;;17.47;49.83;101167.66;5079301;28;1154;-52
2022/10/14 11:36:36;;;;;;;;;;;;;;;17.20;48.96;101163.16;5058958;28;1087;-52
2022/10/14 11:39:07;;;;;;;;;;;;;;;17.08;48.26;101166.13;5059131;28;1130;-50
2022/10/14 11:41:32;;;;;;;;;;;;;;;16.98;47.93;101171.56;5076562;28;1162;-52
2022/10/14 11:44:18;;;;;;;;;;;;;;;17.04;47.40;101170.50;5069375;28;2534;-47
2022/10/14 11:46:45;;;;;;;;;;;;;;;17.39;48.39;101156.09;5076309;28;1983;-51
2022/10/14 11:49:19;;;;;;;;;;;;;;;17.76;49.55;101166.06;5078706;28;1198;-52
2022/10/14 11:51:49;;;;;;;;;;;;;;;17.28;49.25;101165.41;5077778;28;1221;-54
2022/10/14 11:54:19;;;;;;;;;;;;;;;17.04;48.77;101165.84;5061340;28;1186;-52
2022/10/14 11:56:50;;;;;;;;;;;;;;;17.64;49.42;101164.66;5060735;28;1233;-50
2022/10/14 11:59:28;;;;;;;;;;;;;;;17.44;49.78;101166.25;5078202;28;1184;-51
2022/10/14 12:02:00;;;;;;;;;;;;;;;17.10;49.14;101162.00;5075166;28;1135;-52
2022/10/14 12:04:33;;;;;;;;;;;;;;;17.01;48.25;101160.88;5040776;28;1139;-51
2022/10/14 12:07:07;;;;;;;;;;;;;;;17.78;49.13;101161.13;5057779;28;1976;-50
2022/10/14 12:09:37;;;;;;;;;;;;;;;17.29;49.19;101158.78;5077345;28;1103;-53
2022/10/14 12:12:07;;;;;;;;;;;;;;;17.04;48.78;101157.59;5060174;28;1150;-51
2022/10/14 12:14:43;;;;;;;;;;;;;;;17.06;47.80;101163.63;5067135;28;2723;-53
2022/10/14 12:17:18;;;;;;;;;;;;;;;17.00;47.29;101155.63;5077941;28;1174;-54
2022/10/14 12:19:44;;;;;;;;;;;;;;;17.65;48.77;101158.91;5077190;28;1127;-54
2022/10/14 12:22:25;;;;;;;;;;;;;;;17.19;49.51;101161.50;5078319;28;1198;-51
2022/10/14 12:24:51;;;;;;;;;;;;;;;18.88;49.76;101163.63;5067295;28;1178;-51
2022/10/14 12:27:17;;;;;;;;;;;;;;;15.31;59.07;101140.19;5059577;28;1906;-48
2022/10/14 12:29:43;;;;;;;;;;;;;;;16.79;51.88;101144.53;5076815;28;1123;-50
2022/10/14 12:32:15;;;;;;;;;;;;;;;16.99;49.63;101149.31;5060424;28;1194;-52
2022/10/14 12:34:45;;;;;;;;;;;;;;;17.87;51.26;101152.34;5077507;28;1206;-52
2022/10/14 12:37:22;;;;;;;;;;;;;;;17.34;50.83;101147.81;5060432;28;1103;-51
2022/10/14 12:39:49;;;;;;;;;;;;;;;17.09;49.85;101152.09;5065343;28;1087;-50
2022/10/14 12:42:14;;;;;;;;;;;;;;;17.02;49.05;101151.53;5060280;28;1111;-53
2022/10/14 12:44:39;;;;;;;;;;;;;;;16.96;48.21;101149.00;5078010;28;2541;-50
2022/10/14 12:47:07;;;;;;;;;;;;;;;18.03;49.98;101151.28;5077579;28;1914;-54
2022/10/14 12:49:33;;;;;;;;;;;;;;;17.39;50.35;101147.84;5059998;28;1312;-56
2022/10/14 12:52:02;;;;;;;;;;;;;;;17.18;49.38;101143.34;5077565;28;1050;-56
2022/10/14 12:54:28;;;;;;;;;;;;;;;17.12;48.49;101138.94;5076465;28;1174;-56
2022/10/14 12:57:00;;;;;;;;;;;;;;;18.04;49.94;101150.19;5077601;28;1174;-52
2022/10/14 12:59:26;;;;;;;;;;;;;;;17.40;49.85;101141.25;5068807;28;1267;-57
2022/10/14 13:01:55;;;;;;;;;;;;;;;17.30;49.44;101143.13;5074535;28;1234;-54
2022/10/14 13:04:21;;;;;;;;;;;;;;;17.74;50.08;101150.94;5077058;28;1146;-57